createdAt,value
2023-03-12T00:02:21.462Z,77.95
2023-03-12T00:04:48.153Z,78.51
2023-03-12T00:07:14.752Z,77.90
2023-03-12T00:09:41.362Z,77.99
2023-03-12T00:12:10.211Z,77.92
2023-03-12T00:14:37.579Z,78.26
2023-03-12T00:17:04.231Z,78.17
2023-03-12T00:19:30.827Z,78.00
2023-03-12T00:21:57.539Z,77.69
2023-03-12T00:24:24.460Z,77.91
2023-03-12T00:26:50.992Z,77.76
2023-03-12T00:29:19.161Z,77.79
2023-03-12T00:31:45.739Z,77.84
2023-03-12T00:34:12.283Z,78.26
2023-03-12T00:36:38.927Z,77.86
2023-03-12T00:39:05.472Z,78.18
2023-03-12T00:41:32.040Z,78.24
2023-03-12T00:43:58.872Z,78.34
2023-03-12T00:46:27.049Z,78.50
2023-03-12T00:48:53.583Z,78.37
2023-03-12T00:51:20.377Z,77.52
2023-03-12T00:53:46.997Z,78.19
2023-03-12T00:56:13.727Z,77.98
2023-03-12T00:58:40.277Z,77.85
2023-03-12T01:01:06.878Z,77.77
2023-03-12T01:03:34.827Z,77.33
2023-03-12T01:06:01.395Z,77.67
2023-03-12T01:08:27.888Z,77.18
2023-03-12T01:10:54.511Z,77.21
2023-03-12T01:13:21.254Z,77.06
2023-03-12T01:15:47.800Z,76.93
2023-03-12T01:18:14.393Z,76.73
2023-03-12T01:20:42.343Z,76.22
2023-03-12T01:23:09.499Z,76.58
2023-03-12T01:25:36.310Z,76.68
2023-03-12T01:28:02.887Z,76.58
2023-03-12T01:30:30.353Z,76.71
2023-03-12T01:32:56.898Z,77.05
2023-03-12T01:35:23.838Z,77.07
2023-03-12T01:37:51.819Z,76.57
2023-03-12T01:40:20.431Z,76.83
2023-03-12T01:42:52.386Z,77.13
2023-03-12T01:46:07.843Z,77.06
2023-03-12T01:48:39.492Z,76.71
2023-03-12T01:51:08.485Z,76.49
2023-03-12T01:53:37.757Z,77.02
2023-03-12T01:56:06.383Z,76.51
2023-03-12T01:58:36.507Z,76.33
2023-03-12T02:01:03.161Z,76.58
2023-03-12T02:03:31.820Z,76.28
2023-03-12T02:06:02.881Z,76.40
2023-03-12T02:08:29.921Z,76.50
2023-03-12T02:10:57.803Z,76.37
2023-03-12T02:13:24.532Z,75.73
2023-03-12T02:15:51.150Z,76.23
2023-03-12T02:18:19.183Z,75.72
2023-03-12T02:20:52.612Z,76.05
2023-03-12T02:23:21.615Z,76.27
2023-03-12T02:25:51.705Z,76.60
2023-03-12T02:28:21.109Z,77.10
2023-03-12T02:30:51.441Z,76.91
2023-03-12T02:33:18.066Z,76.61
2023-03-12T02:35:46.928Z,76.60
2023-03-12T02:38:33.636Z,76.92
2023-03-12T02:41:05.379Z,76.78
2023-03-12T02:43:32.362Z,76.88
2023-03-12T02:45:59.004Z,77.23
2023-03-12T02:48:25.622Z,76.83
2023-03-12T02:50:52.202Z,77.30
2023-03-12T02:53:18.766Z,77.35
2023-03-12T02:55:45.342Z,77.36
2023-03-12T02:58:13.304Z,77.63
2023-03-12T03:00:39.852Z,77.64
2023-03-12T03:03:06.491Z,77.72
2023-03-12T03:05:33.549Z,77.75
2023-03-12T03:08:00.077Z,77.48
2023-03-12T03:10:26.688Z,77.74
2023-03-12T03:12:53.246Z,77.61
2023-03-12T03:15:21.213Z,77.87
2023-03-12T03:17:47.768Z,77.96
2023-03-12T03:20:14.455Z,77.51
2023-03-12T03:22:41.007Z,77.82
2023-03-12T03:25:09.895Z,77.54
2023-03-12T03:27:36.877Z,78.26
2023-03-12T03:30:04.278Z,78.07
2023-03-12T03:32:32.232Z,78.24
2023-03-12T03:34:58.864Z,78.05
2023-03-12T03:37:25.428Z,78.11
2023-03-12T03:39:51.937Z,78.31
2023-03-12T03:42:18.839Z,77.81
2023-03-12T03:44:45.369Z,78.48
2023-03-12T03:47:11.925Z,78.50
2023-03-12T03:49:40.144Z,78.40
2023-03-12T03:52:06.844Z,78.54
2023-03-12T03:54:33.344Z,79.22
2023-03-12T03:56:59.864Z,78.83
2023-03-12T03:59:29.505Z,79.14
2023-03-12T04:01:56.136Z,79.91
2023-03-12T04:04:22.703Z,79.53
2023-03-12T04:06:50.665Z,79.71
2023-03-12T04:09:17.260Z,79.61
2023-03-12T04:11:43.805Z,80.00
2023-03-12T04:14:10.381Z,79.86
2023-03-12T04:16:36.948Z,80.23
2023-03-12T04:19:03.522Z,80.11
2023-03-12T04:21:30.257Z,80.80
2023-03-12T04:23:58.246Z,80.70
2023-03-12T04:26:24.793Z,80.96
2023-03-12T04:28:51.352Z,80.57
2023-03-12T04:31:17.940Z,80.49
2023-03-12T04:33:44.544Z,80.78
2023-03-12T04:36:11.644Z,80.77
2023-03-12T04:38:38.262Z,80.84
2023-03-12T04:41:08.652Z,80.71
2023-03-12T04:43:35.636Z,80.47
2023-03-12T04:46:02.740Z,80.68
2023-03-12T04:48:29.527Z,80.68
2023-03-12T04:50:56.136Z,80.70
2023-03-12T04:53:23.445Z,80.55
2023-03-12T04:55:50.532Z,80.29
2023-03-12T04:58:22.290Z,80.47
2023-03-12T05:00:50.199Z,79.90
2023-03-12T05:03:17.726Z,79.73
2023-03-12T05:05:44.350Z,79.88
2023-03-12T05:08:10.924Z,80.36
2023-03-12T05:10:37.677Z,79.83
2023-03-12T05:13:04.212Z,80.21
2023-03-12T05:15:32.104Z,80.13
2023-03-12T05:17:58.641Z,80.12
2023-03-12T05:20:25.184Z,80.32
2023-03-12T05:22:51.722Z,80.02
2023-03-12T05:25:18.375Z,80.39
2023-03-12T05:27:44.945Z,80.50
2023-03-12T05:30:12.040Z,80.29
2023-03-12T05:32:40.075Z,80.12
2023-03-12T05:35:07.178Z,80.11
2023-03-12T05:37:33.686Z,79.90
2023-03-12T05:40:00.242Z,80.70
2023-03-12T05:42:26.821Z,80.52
2023-03-12T05:44:53.481Z,80.25
2023-03-12T05:47:20.094Z,80.65
2023-03-12T05:49:48.049Z,80.13
2023-03-12T05:52:15.844Z,80.39
2023-03-12T05:54:42.420Z,80.05
2023-03-12T05:57:08.990Z,80.11
2023-03-12T05:59:35.634Z,80.56
2023-03-12T06:02:02.404Z,79.94
2023-03-12T06:04:29.619Z,80.47
2023-03-12T06:06:57.581Z,80.31
2023-03-12T06:09:24.312Z,80.65
2023-03-12T06:11:50.961Z,80.33
2023-03-12T06:14:17.629Z,80.43
2023-03-12T06:16:44.479Z,80.50
2023-03-12T06:19:12.389Z,80.66
2023-03-12T06:21:38.932Z,80.38
2023-03-12T06:24:07.944Z,80.70
2023-03-12T06:26:34.615Z,80.40
2023-03-12T06:29:01.222Z,80.52
2023-03-12T06:31:27.873Z,81.24
2023-03-12T06:33:54.581Z,80.77
2023-03-12T06:36:21.242Z,81.08
2023-03-12T06:38:47.780Z,81.29
2023-03-12T06:41:17.780Z,81.40
2023-03-12T06:43:45.180Z,81.46
2023-03-12T06:46:14.136Z,81.12
2023-03-12T06:48:41.306Z,81.05
2023-03-12T06:51:08.714Z,80.90
2023-03-12T06:53:35.373Z,81.06
2023-03-12T06:56:02.010Z,81.28
2023-03-12T06:58:30.554Z,81.65
2023-03-12T07:00:57.500Z,81.35
2023-03-12T07:03:24.244Z,81.06
2023-03-12T07:05:51.939Z,80.63
2023-03-12T07:08:18.889Z,80.56
2023-03-12T07:10:46.043Z,80.54
2023-03-12T07:13:12.696Z,79.90
2023-03-12T07:15:40.972Z,79.58
2023-03-12T07:18:09.586Z,80.14
2023-03-12T07:20:37.853Z,79.65
2023-03-12T07:23:04.960Z,78.86
2023-03-12T07:25:31.702Z,78.30
2023-03-12T07:27:58.325Z,77.50
2023-03-12T07:30:24.892Z,77.49
2023-03-12T07:32:52.937Z,76.46
2023-03-12T07:35:19.632Z,76.78
2023-03-12T07:37:46.255Z,75.73
2023-03-12T07:40:13.356Z,74.70
2023-03-12T07:42:40.068Z,73.93
2023-03-12T07:45:07.767Z,73.60
2023-03-12T07:47:34.723Z,74.14
2023-03-12T07:50:03.326Z,73.63
2023-03-12T07:52:30.065Z,73.85
2023-03-12T07:54:56.787Z,73.51
2023-03-12T07:57:23.497Z,72.74
2023-03-12T07:59:51.517Z,73.18
2023-03-12T08:02:18.631Z,72.54
2023-03-12T08:04:45.615Z,72.33
2023-03-12T08:07:14.544Z,72.32
2023-03-12T08:09:41.352Z,72.38
2023-03-12T08:12:08.776Z,71.97
2023-03-12T08:14:35.660Z,71.52
2023-03-12T08:17:02.330Z,71.62
2023-03-12T08:19:28.983Z,71.28
2023-03-12T08:21:55.622Z,71.06
2023-03-12T08:24:23.756Z,71.13
2023-03-12T08:26:50.437Z,70.81
2023-03-12T08:29:17.445Z,70.58
2023-03-12T08:32:01.436Z,70.97
2023-03-12T08:34:28.417Z,70.62
2023-03-12T08:36:54.996Z,69.48
2023-03-12T08:39:23.079Z,69.18
2023-03-12T08:41:49.771Z,70.00
2023-03-12T08:44:16.378Z,69.45
2023-03-12T08:46:42.970Z,68.60
2023-03-12T08:49:09.676Z,68.46
2023-03-12T08:51:36.252Z,68.09
2023-03-12T08:54:02.888Z,68.54
2023-03-12T08:56:30.857Z,67.96
2023-03-12T08:58:58.426Z,68.19
2023-03-12T09:01:25.253Z,67.98
2023-03-12T09:03:51.886Z,67.41
2023-03-12T09:06:18.460Z,66.56
2023-03-12T09:08:46.688Z,67.49
2023-03-12T09:11:14.814Z,66.76
2023-03-12T09:14:03.884Z,66.17
2023-03-12T09:16:30.041Z,65.73
2023-03-12T09:18:57.033Z,65.29
2023-03-12T09:21:23.732Z,66.21
2023-03-12T09:23:50.416Z,66.27
2023-03-12T09:26:16.969Z,64.85
2023-03-12T09:28:44.964Z,64.70
2023-03-12T09:31:12.083Z,63.61
2023-03-12T09:33:39.087Z,62.52
2023-03-12T09:36:06.739Z,63.84
2023-03-12T09:38:33.586Z,63.37
2023-03-12T09:41:00.217Z,62.96
2023-03-12T09:46:53.700Z,61.87
2023-03-12T09:49:30.674Z,62.34
2023-03-12T09:52:00.938Z,61.12
2023-03-12T09:54:34.746Z,61.07
2023-03-12T09:57:09.170Z,60.78
2023-03-12T09:59:35.897Z,60.53
2023-03-12T10:02:17.460Z,59.16
2023-03-12T10:04:59.446Z,59.43
2023-03-12T10:07:32.321Z,58.75
2023-03-12T10:10:10.743Z,57.27
2023-03-12T10:12:49.179Z,58.92
2023-03-12T10:15:28.548Z,58.56
2023-03-12T10:18:08.864Z,59.32
2023-03-12T10:21:03.126Z,58.03
2023-03-12T10:23:39.661Z,58.02
2023-03-12T10:26:12.676Z,57.57
2023-03-12T10:28:44.042Z,58.18
2023-03-12T10:31:16.056Z,55.70
2023-03-12T10:33:50.168Z,55.61
2023-03-12T10:36:19.680Z,56.02
2023-03-12T10:38:46.788Z,56.81
2023-03-12T10:41:15.339Z,55.91
2023-03-12T10:43:42.833Z,55.12
2023-03-12T10:46:34.796Z,56.12
2023-03-12T10:49:25.888Z,56.45
2023-03-12T10:51:57.713Z,54.65
2023-03-12T10:54:30.174Z,54.60
2023-03-12T10:56:56.889Z,54.12
2023-03-12T10:59:28.892Z,52.64
2023-03-12T11:01:56.333Z,53.09
2023-03-12T11:04:29.856Z,52.72
2023-03-12T11:07:17.830Z,52.98
2023-03-12T11:09:44.781Z,52.02
2023-03-12T11:12:24.958Z,51.60
2023-03-12T11:14:51.684Z,50.94
2023-03-12T11:17:23.739Z,52.42
2023-03-12T11:19:51.961Z,51.17
2023-03-12T11:22:29.203Z,51.75
2023-03-12T11:24:57.790Z,51.32
2023-03-12T11:27:37.710Z,52.52
2023-03-12T11:30:06.504Z,51.14
2023-03-12T11:32:37.149Z,52.30
2023-03-12T11:35:10.066Z,51.29
2023-03-12T11:37:45.014Z,51.50
2023-03-12T11:40:30.873Z,50.89
2023-03-12T11:43:43.771Z,51.31
2023-03-12T11:46:27.008Z,51.26
2023-03-12T11:49:06.366Z,50.69
2023-03-12T11:51:46.410Z,49.74
2023-03-12T11:54:38.609Z,49.03
2023-03-12T11:57:12.566Z,49.92
2023-03-12T11:59:50.704Z,51.18
2023-03-12T12:02:33.977Z,50.37
2023-03-12T12:05:26.569Z,47.73
2023-03-12T12:08:22.254Z,48.37
2023-03-12T12:10:56.313Z,47.50
2023-03-12T12:13:33.049Z,47.02
2023-03-12T12:16:15.158Z,46.46
2023-03-12T12:18:55.646Z,48.51
2023-03-12T12:21:36.900Z,45.81
2023-03-12T12:24:18.111Z,48.33
2023-03-12T12:26:49.708Z,46.84
2023-03-12T12:29:34.349Z,45.87
2023-03-12T12:32:05.550Z,47.68
2023-03-12T12:35:05.773Z,44.43
2023-03-12T12:37:47.806Z,44.95
2023-03-12T12:40:21.615Z,44.11
2023-03-12T12:42:56.645Z,46.22
2023-03-12T12:45:26.116Z,44.06
2023-03-12T12:47:57.242Z,45.16
2023-03-12T12:50:27.240Z,43.65
2023-03-12T12:53:03.229Z,42.90
2023-03-12T12:55:36.078Z,44.37
2023-03-12T12:58:10.267Z,43.94
2023-03-12T13:00:44.594Z,43.19
2023-03-12T13:03:14.939Z,44.01
2023-03-12T13:05:46.267Z,42.97
2023-03-12T13:08:48.456Z,42.83
2023-03-12T13:11:27.140Z,45.21
2023-03-12T13:14:22.769Z,44.47
2023-03-12T13:16:49.684Z,45.23
2023-03-12T13:19:25.254Z,44.00
2023-03-12T13:22:03.323Z,44.03
2023-03-12T13:24:33.344Z,44.16
2023-03-12T13:27:10.645Z,45.89
2023-03-12T13:29:40.169Z,46.12
2023-03-12T13:32:30.084Z,47.55
2023-03-12T13:34:57.531Z,48.31
2023-03-12T13:38:01.058Z,48.70
2023-03-12T13:40:35.892Z,49.41
2023-03-12T13:43:11.226Z,48.81
2023-03-12T13:45:54.388Z,48.38
2023-03-12T13:48:21.924Z,48.10
2023-03-12T13:50:51.862Z,47.44
2023-03-12T13:53:23.875Z,46.73
2023-03-12T13:56:01.363Z,46.77
2023-03-12T13:58:40.415Z,46.82
2023-03-12T14:01:15.141Z,47.81
2023-03-12T14:03:45.410Z,47.48
2023-03-12T14:06:14.620Z,48.52
2023-03-12T14:09:00.471Z,47.79
2023-03-12T14:11:39.050Z,48.39
2023-03-12T14:14:32.712Z,49.64
2023-03-12T14:17:02.279Z,47.99
2023-03-12T14:19:30.915Z,48.82
2023-03-12T14:22:02.124Z,50.17
2023-03-12T14:24:32.914Z,48.84
2023-03-12T14:27:01.478Z,49.66
2023-03-12T14:29:35.259Z,49.25
2023-03-12T14:32:05.590Z,49.48
2023-03-12T14:34:38.674Z,49.39
2023-03-12T14:37:12.309Z,50.83
2023-03-12T14:39:43.393Z,51.74
2023-03-12T14:42:17.758Z,51.55
2023-03-12T14:44:54.816Z,51.80
2023-03-12T14:47:21.345Z,51.97
2023-03-12T14:49:47.942Z,51.85
2023-03-12T14:52:21.151Z,53.44
2023-03-12T14:54:54.171Z,52.27
2023-03-12T14:57:21.652Z,53.82
2023-03-12T14:59:54.289Z,53.07
2023-03-12T15:02:22.242Z,52.91
2023-03-12T15:04:51.970Z,53.22
2023-03-12T15:07:23.769Z,53.53
2023-03-12T15:09:51.920Z,52.69
2023-03-12T15:12:20.955Z,52.54
2023-03-12T15:14:50.439Z,53.90
2023-03-12T15:17:21.051Z,53.78
2023-03-12T15:19:49.543Z,54.31
2023-03-12T15:22:19.536Z,53.61
2023-03-12T15:24:46.848Z,54.45
2023-03-12T15:27:33.454Z,55.13
2023-03-12T15:30:01.488Z,55.18
2023-03-12T15:32:29.757Z,55.95
2023-03-12T15:34:59.072Z,57.44
2023-03-12T15:37:28.568Z,57.90
2023-03-12T15:39:56.090Z,59.24
2023-03-12T15:42:25.131Z,58.71
2023-03-12T15:44:54.402Z,59.21
2023-03-12T15:47:24.386Z,59.03
2023-03-12T15:49:56.246Z,59.78
2023-03-12T15:52:29.821Z,59.83
2023-03-12T15:55:01.773Z,59.44
2023-03-12T15:57:28.946Z,60.88
2023-03-12T16:00:17.463Z,60.79
2023-03-12T16:02:49.629Z,61.15
2023-03-12T16:05:19.258Z,61.63
2023-03-12T16:07:46.067Z,62.46
2023-03-12T16:10:15.174Z,62.52
2023-03-12T16:12:43.108Z,63.45
2023-03-12T16:15:14.946Z,64.09
2023-03-12T16:17:42.082Z,64.67
2023-03-12T16:20:12.697Z,65.65
2023-03-12T16:22:41.124Z,65.82
2023-03-12T16:25:11.109Z,66.27
2023-03-12T16:27:47.013Z,67.02
2023-03-12T16:30:17.442Z,67.13
2023-03-12T16:32:44.064Z,67.88
2023-03-12T16:35:16.174Z,68.56
2023-03-12T16:37:44.462Z,68.54
2023-03-12T16:40:14.472Z,69.05
2023-03-12T16:42:45.017Z,69.27
2023-03-12T16:45:14.450Z,69.47
2023-03-12T16:47:42.401Z,69.95
2023-03-12T16:50:16.891Z,69.93
2023-03-12T16:52:45.723Z,70.84
2023-03-12T16:55:12.705Z,70.60
2023-03-12T16:57:44.323Z,71.40
2023-03-12T17:00:15.241Z,71.33
2023-03-12T17:02:41.981Z,71.54
2023-03-12T17:05:08.940Z,72.21
2023-03-12T17:07:35.857Z,72.05
2023-03-12T17:10:04.605Z,72.51
2023-03-12T17:12:33.627Z,72.50
2023-03-12T17:15:01.693Z,72.57
2023-03-12T17:17:28.277Z,72.37
2023-03-12T17:19:55.261Z,72.74
2023-03-12T17:22:22.313Z,73.37
2023-03-12T17:24:49.104Z,73.30
2023-03-12T17:27:17.204Z,73.51
2023-03-12T17:29:43.849Z,73.95
2023-03-12T17:32:10.683Z,74.40
2023-03-12T17:34:37.340Z,74.33
2023-03-12T17:37:04.030Z,75.05
2023-03-12T17:39:30.886Z,76.05
2023-03-12T17:41:57.554Z,76.43
2023-03-12T17:44:25.673Z,76.73
2023-03-12T17:46:59.202Z,77.34
2023-03-12T17:49:26.753Z,77.52
2023-03-12T17:51:53.361Z,77.82
2023-03-12T17:54:20.009Z,77.97
2023-03-12T17:56:46.638Z,78.21
2023-03-12T17:59:13.441Z,78.50
2023-03-12T18:01:41.434Z,78.49
2023-03-12T18:04:08.004Z,79.16
2023-03-12T18:06:34.661Z,79.26
2023-03-12T18:09:01.404Z,79.70
2023-03-12T18:11:28.112Z,80.01
2023-03-12T18:13:54.785Z,80.16
2023-03-12T18:16:21.588Z,80.64
2023-03-12T18:18:52.120Z,81.18
2023-03-12T18:21:19.220Z,81.75
2023-03-12T18:23:45.890Z,81.63
2023-03-12T18:26:12.605Z,82.13
2023-03-12T18:28:39.172Z,82.16
2023-03-12T18:31:05.826Z,82.84
2023-03-12T18:33:32.592Z,83.08
2023-03-12T18:36:00.693Z,83.44
2023-03-12T18:38:27.416Z,83.52
2023-03-12T18:41:02.031Z,83.40
2023-03-12T18:43:28.623Z,83.94
2023-03-12T18:45:55.197Z,83.80
2023-03-12T18:48:22.002Z,84.09
2023-03-12T18:50:49.846Z,84.42
2023-03-12T18:53:18.026Z,84.56
2023-03-12T18:55:51.386Z,84.92
2023-03-12T18:58:17.852Z,85.01
2023-03-12T19:00:44.438Z,84.90
2023-03-12T19:03:11.448Z,85.31
2023-03-12T19:05:38.050Z,85.47
2023-03-12T19:08:05.323Z,85.18
2023-03-12T19:10:33.286Z,85.43
2023-03-12T19:13:00.005Z,85.98
2023-03-12T19:15:26.790Z,85.97
2023-03-12T19:17:53.675Z,86.48
2023-03-12T19:20:20.682Z,86.56
2023-03-12T19:22:47.397Z,86.50
2023-03-12T19:25:13.983Z,87.04
2023-03-12T19:27:42.205Z,86.86
2023-03-12T19:30:10.279Z,87.23
2023-03-12T19:32:43.340Z,87.03
2023-03-12T19:35:12.110Z,87.20
2023-03-12T19:37:38.811Z,87.80
2023-03-12T19:40:07.094Z,87.84
2023-03-12T19:42:34.103Z,87.71
2023-03-12T19:45:02.217Z,88.06
2023-03-12T19:47:28.981Z,88.33
2023-03-12T19:49:55.625Z,88.64
2023-03-12T19:52:22.251Z,88.65
2023-03-12T19:55:01.436Z,88.59
2023-03-12T19:57:30.829Z,88.72
2023-03-12T19:59:57.436Z,88.61
2023-03-12T20:02:25.659Z,88.87
2023-03-12T20:04:52.631Z,89.28
2023-03-12T20:07:19.214Z,88.86
2023-03-12T20:09:45.926Z,89.47
2023-03-12T20:12:12.709Z,89.46
2023-03-12T20:14:42.049Z,89.61
2023-03-12T20:17:09.242Z,89.69
2023-03-12T20:19:37.316Z,89.72
2023-03-12T20:22:04.304Z,90.44
2023-03-12T20:24:31.085Z,89.96
2023-03-12T20:26:57.796Z,90.10
2023-03-12T20:29:24.445Z,90.26
2023-03-12T20:31:51.268Z,90.16
2023-03-12T20:34:18.272Z,90.32
2023-03-12T20:36:46.345Z,90.26
2023-03-12T20:39:13.174Z,90.37
2023-03-12T20:41:39.877Z,90.65
2023-03-12T20:44:06.633Z,90.53
2023-03-12T20:46:33.330Z,90.53
2023-03-12T20:49:00.005Z,90.36
2023-03-12T20:51:26.666Z,90.31
2023-03-12T20:53:54.951Z,90.46
2023-03-12T20:56:21.585Z,90.54
2023-03-12T20:58:48.341Z,90.91
2023-03-12T21:01:14.991Z,90.83
2023-03-12T21:03:41.562Z,90.94
2023-03-12T21:06:08.283Z,91.04
2023-03-12T21:08:34.944Z,90.98
2023-03-12T21:11:05.307Z,91.25
2023-03-12T21:13:32.077Z,91.64
2023-03-12T21:15:58.727Z,91.87
2023-03-12T21:18:25.548Z,92.04
2023-03-12T21:20:52.408Z,92.04
2023-03-12T21:23:19.154Z,92.43
2023-03-12T21:25:45.961Z,92.71
2023-03-12T21:28:16.086Z,92.84
2023-03-12T21:30:42.768Z,92.75
2023-03-12T21:33:09.408Z,92.98
2023-03-12T21:35:36.004Z,92.76
2023-03-12T21:38:02.669Z,92.96
2023-03-12T21:40:29.264Z,92.88
2023-03-12T21:42:56.103Z,92.79
2023-03-12T21:45:24.377Z,92.95
2023-03-12T21:47:51.032Z,93.03
2023-03-12T21:50:17.787Z,92.92
2023-03-12T21:52:44.415Z,92.93
2023-03-12T21:55:11.348Z,92.91
2023-03-12T21:57:38.042Z,92.80
2023-03-12T22:00:06.078Z,92.81
2023-03-12T22:02:34.135Z,93.00
2023-03-12T22:05:00.771Z,93.52
2023-03-12T22:07:29.065Z,93.06
2023-03-12T22:09:55.804Z,92.89
2023-03-12T22:12:22.390Z,92.93
2023-03-12T22:14:49.060Z,92.88
2023-03-12T22:17:15.701Z,92.79
2023-03-12T22:19:44.240Z,92.61
2023-03-12T22:22:10.882Z,92.81
2023-03-12T22:24:37.621Z,92.25
2023-03-12T22:27:04.523Z,91.94
2023-03-12T22:29:31.277Z,91.90
2023-03-12T22:31:57.809Z,91.69
2023-03-12T22:34:24.606Z,91.71
2023-03-12T22:36:52.611Z,91.54
2023-03-12T22:39:19.220Z,91.48
2023-03-12T22:41:49.041Z,91.54
2023-03-12T22:44:15.653Z,91.93
2023-03-12T22:46:42.348Z,91.77
2023-03-12T22:49:09.022Z,91.81
2023-03-12T22:51:35.623Z,91.85
2023-03-12T22:54:03.847Z,92.16
2023-03-12T22:56:30.464Z,92.07
2023-03-12T22:58:57.197Z,92.05
2023-03-12T23:01:24.544Z,92.18
2023-03-12T23:03:51.314Z,92.00
2023-03-12T23:06:19.596Z,92.02
2023-03-12T23:08:47.878Z,92.10
2023-03-12T23:11:17.059Z,92.19
2023-03-12T23:13:45.037Z,91.78
2023-03-12T23:16:14.203Z,91.99
2023-03-12T23:18:40.792Z,91.88
2023-03-12T23:21:09.942Z,91.83
2023-03-12T23:23:37.377Z,91.74
2023-03-12T23:26:04.233Z,91.80
2023-03-12T23:28:32.212Z,91.83
2023-03-12T23:31:01.249Z,91.80
2023-03-12T23:33:29.108Z,91.98
2023-03-12T23:35:57.853Z,91.91
2023-03-12T23:38:25.062Z,92.11
2023-03-12T23:40:52.274Z,92.32
2023-03-12T23:43:19.174Z,92.28
2023-03-12T23:45:47.197Z,92.24
2023-03-12T23:48:13.867Z,92.27
2023-03-12T23:50:40.491Z,92.13
2023-03-12T23:53:07.084Z,92.09
2023-03-12T23:55:33.674Z,91.82
2023-03-12T23:58:00.268Z,92.13
